Etusivu
METAR-TAF:

METAR-TAF

Lentoasemat :

Guilin, Kiina

Leveyspiiri: 25-20N, Pituuspiiri: 110-18E, korkeus merenpinnasta: 166 m

Tämänhetkinen sää

Tämä raportti tehtiin 1 tunti ja 2 minuuttia sitten, kello 16.00 UTC
tyyntä
Lämpötila 21°C
Kosteus 88%
Ilmanpaine 1013 hPa
Näkyvyys: 7000 m
Hajanaisia pilviä 5000 ft:n korkeudessa

METAR: ZGKL 211600Z 00000MPS 7000 SCT050 21/19 Q1013 NOSIG

Aika: 01:02 (17:02 UTC)

Sääennuste

Tämä raportti tehtiin 7 tuntia ja 55 minuuttia sitten, kello 09.07 UTC
Ennuste voimassa 21. päivästä klo 12 UTC - 22. päivään klo 12 UTC
Tuuli 6 kn koillisesta
Näkyvyys 10 km tai enemmän
Hajanaisia pilviä 4000 ft:n korkeudessa
Hajonneita pilviä 6000 ft:n korkeudessa

TAF: ZGKL 210907Z 2112/2212 05003MPS 9999 SCT040 BKN060 TX29/2208Z TN19/2123Z

Säähavainnot ja -ennusteet yli 4000 lentoasemalta (METAR- ja TAF-raportit).

Käytössä olevat sääasemat on merkitty karttaan keltaisilla ja punaisilla pisteillä.

Aseta hiiri pisteen päälle nähdäksesi sääaseman nimen.

Klikkaa sitten nähdäksesi säähavainnot ja -ennusteet.

Kartan vaihtaminen: klikkaa mustalla rastilla varustettuja vihreitä pisteitä, niin voit zoomata sisään; viivalla varustettua vihreää pistettä, niin voit zoomata ulos tai vihreitä nuolia, niin pääset viereisille kartoille.


METAR-TAF: